WZZ4295 EPKK-LIMC
Flight info
| Callsign | WZZ4295 |
|---|---|
| Flight time | N/A |
| Altitude | 38000 |
| Route | BABKO DCT VADEX L856 KOPAT DCT MAREG DCT DETSA DCT GUNGO DCT RENTA DCT ATPED DCT LUSIL DCT EVRIP |
| Aircraft | A320/M-SDE3FGHIRWY/LB1 |
Departure
| Time | 2026-05-06 15:39 |
|---|---|
| Airport | Kraków John Paul II International Airport (EPKK) |
Arrival
| Time | N/A |
|---|---|
| Airport | Milan Malpensa International Airport (LIMC) |
| Time | Latitude | Longitude | Altitude | Speed | Heading |
|---|---|---|---|---|---|
| 2026-05-06 15:19 | 50.07535 | 19.80526 | 800 ft | 0 kts | 107° |
| 2026-05-06 15:33 | 50.07537 | 19.80514 | 800 ft | 3 kts | 107° |
| 2026-05-06 15:33 | 50.07544 | 19.80480 | 800 ft | 3 kts | 107° |
| 2026-05-06 15:34 | 50.07549 | 19.80453 | 800 ft | 3 kts | 99° |
| 2026-05-06 15:34 | 50.07549 | 19.80423 | 800 ft | 3 kts | 52° |
| 2026-05-06 15:34 | 50.07533 | 19.80407 | 800 ft | 3 kts | 17° |
| 2026-05-06 15:34 | 50.07525 | 19.80403 | 800 ft | 0 kts | 17° |
| 2026-05-06 15:36 | 50.07527 | 19.80404 | 800 ft | 2 kts | 17° |
| 2026-05-06 15:36 | 50.07577 | 19.80422 | 800 ft | 13 kts | 359° |
| 2026-05-06 15:36 | 50.07682 | 19.80391 | 800 ft | 17 kts | 349° |
| 2026-05-06 15:37 | 50.07797 | 19.80353 | 800 ft | 15 kts | 348° |
| 2026-05-06 15:37 | 50.07830 | 19.80342 | 800 ft | 5 kts | 348° |
| 2026-05-06 15:37 | 50.07899 | 19.80320 | 800 ft | 16 kts | 348° |
| 2026-05-06 15:37 | 50.08007 | 19.80268 | 800 ft | 14 kts | 314° |
| 2026-05-06 15:38 | 50.08010 | 19.80174 | 800 ft | 14 kts | 254° |
| 2026-05-06 15:38 | 50.07982 | 19.79965 | 801 ft | 40 kts | 259° |
| 2026-05-06 15:38 | 50.07873 | 19.79182 | 801 ft | 105 kts | 257° |
| 2026-05-06 15:38 | 50.07680 | 19.77810 | 800 ft | 152 kts | 257° |
| 2026-05-06 15:39 | 50.07423 | 19.75580 | 1471 ft | 159 kts | 260° |
| 2026-05-06 15:39 | 50.07190 | 19.73877 | 2071 ft | 162 kts | 256° |
| 2026-05-06 15:39 | 50.06934 | 19.72072 | 2430 ft | 183 kts | 255° |
| 2026-05-06 15:39 | 50.06735 | 19.70731 | 2626 ft | 200 kts | 256° |
| 2026-05-06 15:40 | 50.06402 | 19.68494 | 3043 ft | 223 kts | 255° |
| 2026-05-06 15:40 | 50.06011 | 19.66109 | 3807 ft | 230 kts | 246° |
| 2026-05-06 15:40 | 50.04991 | 19.64228 | 4660 ft | 237 kts | 212° |
| 2026-05-06 15:40 | 50.03333 | 19.63629 | 5264 ft | 258 kts | 179° |
| 2026-05-06 15:41 | 50.01544 | 19.64132 | 6202 ft | 264 kts | 167° |
| 2026-05-06 15:41 | 49.99776 | 19.64983 | 7125 ft | 268 kts | 165° |
| 2026-05-06 15:41 | 49.97990 | 19.65890 | 8018 ft | 271 kts | 165° |
| 2026-05-06 15:41 | 49.96178 | 19.66740 | 8938 ft | 273 kts | 167° |
| 2026-05-06 15:42 | 49.94360 | 19.67503 | 9823 ft | 276 kts | 168° |
| 2026-05-06 15:42 | 49.92443 | 19.68237 | 10254 ft | 295 kts | 169° |
| 2026-05-06 15:42 | 49.90356 | 19.68942 | 10499 ft | 318 kts | 174° |
| 2026-05-06 15:42 | 49.88110 | 19.68976 | 10947 ft | 328 kts | 189° |
| 2026-05-06 15:43 | 49.85903 | 19.68082 | 11651 ft | 330 kts | 204° |
| 2026-05-06 15:43 | 49.83867 | 19.66442 | 12411 ft | 332 kts | 211° |
| 2026-05-06 15:43 | 49.81840 | 19.64682 | 13107 ft | 336 kts | 211° |
| 2026-05-06 15:43 | 49.79786 | 19.62904 | 13793 ft | 341 kts | 211° |
| 2026-05-06 15:44 | 49.77731 | 19.61131 | 14436 ft | 344 kts | 211° |
| 2026-05-06 15:44 | 49.75638 | 19.59332 | 15120 ft | 346 kts | 210° |
| 2026-05-06 15:44 | 49.73531 | 19.57522 | 15793 ft | 347 kts | 210° |
| 2026-05-06 15:44 | 49.71412 | 19.55704 | 16432 ft | 349 kts | 210° |
| 2026-05-06 15:45 | 49.69278 | 19.53877 | 17078 ft | 351 kts | 210° |
| 2026-05-06 15:45 | 49.67136 | 19.52041 | 17744 ft | 354 kts | 210° |
| 2026-05-06 15:45 | 49.64976 | 19.50193 | 18360 ft | 356 kts | 210° |
| 2026-05-06 15:45 | 49.62802 | 19.48332 | 18921 ft | 359 kts | 210° |
| 2026-05-06 15:46 | 49.60754 | 19.46120 | 19476 ft | 361 kts | 221° |
| 2026-05-06 15:46 | 49.58996 | 19.43403 | 20019 ft | 364 kts | 226° |
| 2026-05-06 15:46 | 49.57253 | 19.40544 | 20566 ft | 367 kts | 226° |
| 2026-05-06 15:46 | 49.55495 | 19.37668 | 21094 ft | 370 kts | 226° |
| 2026-05-06 15:47 | 49.53720 | 19.34769 | 21592 ft | 374 kts | 226° |
| 2026-05-06 15:47 | 49.51925 | 19.31846 | 22050 ft | 377 kts | 226° |
| 2026-05-06 15:47 | 49.50114 | 19.28904 | 22540 ft | 381 kts | 226° |
| 2026-05-06 15:47 | 49.48285 | 19.25938 | 23047 ft | 384 kts | 226° |
| 2026-05-06 15:48 | 49.46439 | 19.22944 | 23526 ft | 387 kts | 226° |
| 2026-05-06 15:48 | 49.44608 | 19.19973 | 23929 ft | 390 kts | 226° |
| 2026-05-06 15:48 | 49.42741 | 19.16944 | 24351 ft | 392 kts | 226° |
| 2026-05-06 15:48 | 49.40861 | 19.13897 | 24796 ft | 393 kts | 226° |
| 2026-05-06 15:49 | 49.38975 | 19.10843 | 25228 ft | 395 kts | 226° |
| 2026-05-06 15:49 | 49.37076 | 19.07768 | 25643 ft | 397 kts | 226° |
| 2026-05-06 15:49 | 49.35171 | 19.04687 | 26052 ft | 399 kts | 226° |
| 2026-05-06 15:49 | 49.33253 | 19.01592 | 26466 ft | 401 kts | 226° |
| 2026-05-06 15:50 | 49.31322 | 18.98488 | 26866 ft | 404 kts | 226° |
| 2026-05-06 15:50 | 49.29397 | 18.95404 | 27269 ft | 406 kts | 226° |
| 2026-05-06 15:50 | 49.27439 | 18.92268 | 27676 ft | 409 kts | 226° |
| 2026-05-06 15:50 | 49.25470 | 18.89111 | 28091 ft | 411 kts | 227° |
| 2026-05-06 15:51 | 49.23493 | 18.85940 | 28493 ft | 413 kts | 227° |
| 2026-05-06 15:51 | 49.21502 | 18.82750 | 28887 ft | 415 kts | 227° |
| 2026-05-06 15:51 | 49.19502 | 18.79553 | 29267 ft | 417 kts | 226° |
| 2026-05-06 15:51 | 49.17486 | 18.76340 | 29653 ft | 420 kts | 226° |
| 2026-05-06 15:52 | 49.15461 | 18.73115 | 30045 ft | 421 kts | 227° |
| 2026-05-06 15:52 | 49.13436 | 18.69893 | 30542 ft | 418 kts | 227° |
| 2026-05-06 15:52 | 49.11431 | 18.66702 | 31080 ft | 415 kts | 227° |
| 2026-05-06 15:52 | 49.09576 | 18.63437 | 31626 ft | 411 kts | 233° |
| 2026-05-06 15:53 | 49.07795 | 18.60055 | 32213 ft | 407 kts | 233° |
| 2026-05-06 15:53 | 49.06030 | 18.56713 | 32818 ft | 403 kts | 233° |
| 2026-05-06 15:53 | 49.04282 | 18.53409 | 33447 ft | 398 kts | 234° |
| 2026-05-06 15:53 | 49.02553 | 18.50142 | 34024 ft | 394 kts | 234° |
| 2026-05-06 15:54 | 49.00837 | 18.46898 | 34514 ft | 392 kts | 234° |
| 2026-05-06 15:54 | 48.99125 | 18.43665 | 34877 ft | 392 kts | 233° |
| 2026-05-06 15:54 | 48.97409 | 18.40435 | 35242 ft | 392 kts | 233° |
| 2026-05-06 15:54 | 48.95717 | 18.37256 | 35563 ft | 393 kts | 233° |
| 2026-05-06 15:55 | 48.93997 | 18.34027 | 35902 ft | 393 kts | 233° |
| 2026-05-06 15:55 | 48.92275 | 18.30797 | 36214 ft | 393 kts | 233° |
| 2026-05-06 15:55 | 48.90549 | 18.27564 | 36503 ft | 394 kts | 232° |
| 2026-05-06 15:55 | 48.88818 | 18.24325 | 36818 ft | 395 kts | 232° |
| 2026-05-06 15:56 | 48.87091 | 18.21093 | 37174 ft | 394 kts | 232° |
| 2026-05-06 15:56 | 48.85365 | 18.17863 | 37501 ft | 394 kts | 232° |
| 2026-05-06 15:56 | 48.83633 | 18.14634 | 37768 ft | 395 kts | 232° |
| 2026-05-06 15:56 | 48.81916 | 18.11437 | 37838 ft | 397 kts | 232° |
| 2026-05-06 15:57 | 48.78410 | 18.04924 | 37836 ft | 399 kts | 232° |
| 2026-05-06 15:57 | 48.74899 | 17.98411 | 37837 ft | 399 kts | 232° |
| 2026-05-06 15:58 | 48.71386 | 17.91918 | 37838 ft | 398 kts | 232° |
| 2026-05-06 15:58 | 48.67871 | 17.85435 | 37838 ft | 398 kts | 232° |
| 2026-05-06 15:59 | 48.64380 | 17.78994 | 37820 ft | 399 kts | 232° |
| 2026-05-06 15:59 | 48.60858 | 17.72523 | 37823 ft | 399 kts | 232° |
| 2026-05-06 16:00 | 48.57328 | 17.66059 | 37819 ft | 399 kts | 231° |
| 2026-05-06 16:00 | 48.53796 | 17.59615 | 37837 ft | 398 kts | 231° |
| 2026-05-06 16:01 | 48.50272 | 17.53188 | 37844 ft | 397 kts | 231° |
| 2026-05-06 16:01 | 48.46773 | 17.46818 | 37835 ft | 397 kts | 231° |
| 2026-05-06 16:02 | 48.43256 | 17.40435 | 37828 ft | 396 kts | 231° |
| 2026-05-06 16:02 | 48.39735 | 17.34073 | 37814 ft | 395 kts | 231° |
| 2026-05-06 16:03 | 48.36224 | 17.27728 | 37815 ft | 394 kts | 231° |
| 2026-05-06 16:03 | 48.32737 | 17.21435 | 37817 ft | 394 kts | 231° |
| 2026-05-06 16:04 | 48.29226 | 17.15117 | 37819 ft | 394 kts | 231° |
| 2026-05-06 16:04 | 48.25712 | 17.08826 | 37826 ft | 393 kts | 231° |
| 2026-05-06 16:05 | 48.22193 | 17.02537 | 37804 ft | 393 kts | 231° |
| 2026-05-06 16:05 | 48.18937 | 16.96043 | 37798 ft | 393 kts | 241° |
| 2026-05-06 16:06 | 48.16792 | 16.88503 | 37782 ft | 394 kts | 247° |
| 2026-05-06 16:06 | 48.14746 | 16.80894 | 37781 ft | 394 kts | 247° |
| 2026-05-06 16:07 | 48.12685 | 16.73293 | 37782 ft | 394 kts | 247° |
| 2026-05-06 16:07 | 48.10629 | 16.65742 | 37784 ft | 395 kts | 247° |
| 2026-05-06 16:08 | 48.08555 | 16.58133 | 37777 ft | 395 kts | 246° |
| 2026-05-06 16:08 | 48.06484 | 16.50523 | 37770 ft | 396 kts | 246° |
| 2026-05-06 16:09 | 48.04393 | 16.42898 | 37773 ft | 397 kts | 246° |
| 2026-05-06 16:09 | 48.02306 | 16.35328 | 37788 ft | 397 kts | 246° |
| 2026-05-06 16:10 | 48.00203 | 16.27704 | 37795 ft | 397 kts | 246° |
| 2026-05-06 16:10 | 47.98099 | 16.20084 | 37797 ft | 396 kts | 246° |
| 2026-05-06 16:11 | 47.95995 | 16.12490 | 37786 ft | 396 kts | 246° |
| 2026-05-06 16:11 | 47.93896 | 16.04948 | 37810 ft | 396 kts | 245° |
| 2026-05-06 16:12 | 47.91780 | 15.97387 | 37810 ft | 394 kts | 245° |
| 2026-05-06 16:12 | 47.89666 | 15.89858 | 37803 ft | 393 kts | 245° |
| 2026-05-06 16:13 | 47.87550 | 15.82351 | 37815 ft | 393 kts | 245° |
| 2026-05-06 16:13 | 47.85452 | 15.74909 | 37805 ft | 392 kts | 245° |
| 2026-05-06 16:14 | 47.83337 | 15.67426 | 37809 ft | 392 kts | 244° |
| 2026-05-06 16:14 | 47.81211 | 15.59947 | 37806 ft | 392 kts | 244° |
| 2026-05-06 16:15 | 47.79086 | 15.52489 | 37785 ft | 391 kts | 244° |
| 2026-05-06 16:15 | 47.76973 | 15.45070 | 37803 ft | 393 kts | 244° |
| 2026-05-06 16:16 | 47.74838 | 15.37598 | 37798 ft | 392 kts | 244° |
| 2026-05-06 16:16 | 47.72703 | 15.30142 | 37823 ft | 393 kts | 244° |
| 2026-05-06 16:17 | 47.70548 | 15.22693 | 37827 ft | 392 kts | 244° |
| 2026-05-06 16:17 | 47.68413 | 15.15324 | 37818 ft | 391 kts | 244° |
| 2026-05-06 16:18 | 47.66263 | 15.07915 | 37801 ft | 391 kts | 244° |
| 2026-05-06 16:18 | 47.64107 | 15.00506 | 37808 ft | 391 kts | 244° |
| 2026-05-06 16:19 | 47.61954 | 14.93123 | 37806 ft | 390 kts | 244° |
| 2026-05-06 16:19 | 47.59813 | 14.85790 | 37804 ft | 391 kts | 244° |
| 2026-05-06 16:20 | 47.57640 | 14.78394 | 37826 ft | 391 kts | 244° |
| 2026-05-06 16:20 | 47.55465 | 14.71005 | 37819 ft | 392 kts | 244° |
| 2026-05-06 16:21 | 47.53268 | 14.63571 | 37828 ft | 400 kts | 244° |
| 2026-05-06 16:21 | 47.51029 | 14.56001 | 37815 ft | 407 kts | 244° |
| 2026-05-06 16:22 | 47.48725 | 14.48267 | 37808 ft | 413 kts | 244° |
| 2026-05-06 16:22 | 47.46406 | 14.40500 | 37817 ft | 413 kts | 244° |
| 2026-05-06 16:23 | 47.44085 | 14.32737 | 37815 ft | 414 kts | 244° |
| 2026-05-06 16:23 | 47.41772 | 14.25015 | 37847 ft | 413 kts | 244° |
| 2026-05-06 16:24 | 47.39445 | 14.17264 | 37845 ft | 412 kts | 244° |
| 2026-05-06 16:24 | 47.37114 | 14.09536 | 37836 ft | 412 kts | 244° |
| 2026-05-06 16:25 | 47.34779 | 14.01834 | 37839 ft | 411 kts | 244° |
| 2026-05-06 16:25 | 47.32461 | 13.94209 | 37843 ft | 409 kts | 244° |
| 2026-05-06 16:26 | 47.30144 | 13.86591 | 37825 ft | 407 kts | 244° |
| 2026-05-06 16:26 | 47.27818 | 13.78979 | 37843 ft | 407 kts | 244° |
| 2026-05-06 16:27 | 47.25495 | 13.71391 | 37861 ft | 407 kts | 243° |
| 2026-05-06 16:27 | 47.23179 | 13.63854 | 37832 ft | 407 kts | 243° |
| 2026-05-06 16:28 | 47.20846 | 13.56278 | 37830 ft | 407 kts | 243° |
| 2026-05-06 16:28 | 47.18506 | 13.48706 | 37800 ft | 408 kts | 244° |
| 2026-05-06 16:29 | 47.16141 | 13.41108 | 37788 ft | 408 kts | 244° |
| 2026-05-06 16:29 | 47.13791 | 13.33552 | 37803 ft | 410 kts | 244° |
| 2026-05-06 16:30 | 47.11804 | 13.27171 | 37817 ft | 410 kts | 243° |
| 2026-05-06 16:30 | 47.09028 | 13.18310 | 37814 ft | 412 kts | 243° |
| 2026-05-06 16:31 | 47.06634 | 13.10676 | 37820 ft | 412 kts | 243° |
| 2026-05-06 16:31 | 47.04246 | 13.03086 | 37792 ft | 412 kts | 243° |